sensor_id;sensor_type;location;lat;lon;timestamp;P1;durP1;ratioP1;P2;durP2;ratioP2
38455;SDS011;24237;50.106;20.014;2023-10-08T00:00:03;10.20;;;4.80;;
38455;SDS011;24237;50.106;20.014;2023-10-08T00:02:49;5.25;;;2.47;;
38455;SDS011;24237;50.106;20.014;2023-10-08T00:05:15;3.72;;;1.55;;
38455;SDS011;24237;50.106;20.014;2023-10-08T00:07:41;2.22;;;0.90;;
38455;SDS011;24237;50.106;20.014;2023-10-08T00:10:08;0.90;;;0.55;;
38455;SDS011;24237;50.106;20.014;2023-10-08T00:12:34;0.38;;;0.20;;
38455;SDS011;24237;50.106;20.014;2023-10-08T00:14:59;0.77;;;0.45;;
38455;SDS011;24237;50.106;20.014;2023-10-08T00:17:25;0.50;;;0.50;;
38455;SDS011;24237;50.106;20.014;2023-10-08T00:19:51;1.48;;;0.82;;
38455;SDS011;24237;50.106;20.014;2023-10-08T00:22:17;0.75;;;0.20;;
38455;SDS011;24237;50.106;20.014;2023-10-08T00:24:44;0.40;;;0.20;;
38455;SDS011;24237;50.106;20.014;2023-10-08T00:27:14;0.13;;;0.13;;
38455;SDS011;24237;50.106;20.014;2023-10-08T00:29:40;3.20;;;0.20;;
38455;SDS011;24237;50.106;20.014;2023-10-08T00:32:08;0.43;;;0.20;;
38455;SDS011;24237;50.106;20.014;2023-10-08T00:34:40;0.63;;;0.30;;
38455;SDS011;24237;50.106;20.014;2023-10-08T00:37:07;2.00;;;0.90;;
38455;SDS011;24237;50.106;20.014;2023-10-08T00:39:35;4.70;;;0.25;;
38455;SDS011;24237;50.106;20.014;2023-10-08T00:42:03;2.35;;;0.20;;
38455;SDS011;24237;50.106;20.014;2023-10-08T00:44:31;0.15;;;0.10;;
38455;SDS011;24237;50.106;20.014;2023-10-08T00:47:00;1.38;;;0.20;;
38455;SDS011;24237;50.106;20.014;2023-10-08T00:49:26;0.20;;;0.20;;
38455;SDS011;24237;50.106;20.014;2023-10-08T00:52:09;0.30;;;0.30;;
38455;SDS011;24237;50.106;20.014;2023-10-08T00:54:36;4.03;;;0.20;;
38455;SDS011;24237;50.106;20.014;2023-10-08T00:57:19;0.98;;;0.20;;
38455;SDS011;24237;50.106;20.014;2023-10-08T00:59:53;0.30;;;0.30;;
38455;SDS011;24237;50.106;20.014;2023-10-08T01:02:19;0.40;;;0.30;;
38455;SDS011;24237;50.106;20.014;2023-10-08T01:04:49;0.38;;;0.38;;
38455;SDS011;24237;50.106;20.014;2023-10-08T01:07:16;0.30;;;0.30;;
38455;SDS011;24237;50.106;20.014;2023-10-08T01:09:43;0.40;;;0.30;;
38455;SDS011;24237;50.106;20.014;2023-10-08T01:12:15;1.50;;;0.60;;
38455;SDS011;24237;50.106;20.014;2023-10-08T01:14:52;0.68;;;0.43;;
38455;SDS011;24237;50.106;20.014;2023-10-08T01:17:22;0.32;;;0.30;;
38455;SDS011;24237;50.106;20.014;2023-10-08T01:19:57;0.40;;;0.40;;
38455;SDS011;24237;50.106;20.014;2023-10-08T01:22:33;0.50;;;0.50;;
38455;SDS011;24237;50.106;20.014;2023-10-08T01:24:59;0.50;;;0.50;;
38455;SDS011;24237;50.106;20.014;2023-10-08T01:27:29;2.17;;;0.50;;
38455;SDS011;24237;50.106;20.014;2023-10-08T01:29:59;1.00;;;0.70;;
38455;SDS011;24237;50.106;20.014;2023-10-08T01:32:42;0.93;;;0.60;;
38455;SDS011;24237;50.106;20.014;2023-10-08T01:35:09;3.20;;;0.85;;
38455;SDS011;24237;50.106;20.014;2023-10-08T01:37:48;0.63;;;0.47;;
38455;SDS011;24237;50.106;20.014;2023-10-08T01:42:41;0.40;;;0.38;;
38455;SDS011;24237;50.106;20.014;2023-10-08T01:45:07;1.20;;;0.20;;
38455;SDS011;24237;50.106;20.014;2023-10-08T01:47:35;0.30;;;0.30;;
38455;SDS011;24237;50.106;20.014;2023-10-08T01:50:01;0.32;;;0.20;;
38455;SDS011;24237;50.106;20.014;2023-10-08T01:52:31;0.10;;;0.10;;
38455;SDS011;24237;50.106;20.014;2023-10-08T01:54:57;0.15;;;0.15;;
38455;SDS011;24237;50.106;20.014;2023-10-08T01:57:23;0.32;;;0.22;;
38455;SDS011;24237;50.106;20.014;2023-10-08T01:59:48;0.35;;;0.20;;
38455;SDS011;24237;50.106;20.014;2023-10-08T02:02:14;1.08;;;0.65;;
38455;SDS011;24237;50.106;20.014;2023-10-08T02:04:40;1.27;;;0.47;;
38455;SDS011;24237;50.106;20.014;2023-10-08T02:07:06;0.20;;;0.10;;
38455;SDS011;24237;50.106;20.014;2023-10-08T02:09:38;0.15;;;0.15;;
38455;SDS011;24237;50.106;20.014;2023-10-08T02:12:04;0.53;;;0.30;;
38455;SDS011;24237;50.106;20.014;2023-10-08T02:14:30;0.22;;;0.22;;
38455;SDS011;24237;50.106;20.014;2023-10-08T02:16:57;0.50;;;0.40;;
38455;SDS011;24237;50.106;20.014;2023-10-08T02:19:26;2.53;;;0.60;;
38455;SDS011;24237;50.106;20.014;2023-10-08T02:21:55;0.20;;;0.20;;
38455;SDS011;24237;50.106;20.014;2023-10-08T02:24:22;1.73;;;0.45;;
38455;SDS011;24237;50.106;20.014;2023-10-08T02:26:49;1.88;;;0.60;;
38455;SDS011;24237;50.106;20.014;2023-10-08T02:29:28;2.25;;;0.45;;
38455;SDS011;24237;50.106;20.014;2023-10-08T02:31:56;0.70;;;0.50;;
38455;SDS011;24237;50.106;20.014;2023-10-08T02:34:21;1.40;;;0.73;;
38455;SDS011;24237;50.106;20.014;2023-10-08T02:36:47;2.17;;;0.80;;
38455;SDS011;24237;50.106;20.014;2023-10-08T02:39:13;1.42;;;0.60;;
38455;SDS011;24237;50.106;20.014;2023-10-08T02:41:40;0.90;;;0.70;;
38455;SDS011;24237;50.106;20.014;2023-10-08T02:44:12;3.95;;;0.82;;
38455;SDS011;24237;50.106;20.014;2023-10-08T02:46:42;2.78;;;0.80;;
38455;SDS011;24237;50.106;20.014;2023-10-08T02:49:12;7.00;;;0.98;;
38455;SDS011;24237;50.106;20.014;2023-10-08T02:51:42;2.75;;;1.00;;
38455;SDS011;24237;50.106;20.014;2023-10-08T02:54:10;2.20;;;1.10;;
38455;SDS011;24237;50.106;20.014;2023-10-08T02:56:46;1.38;;;0.95;;
38455;SDS011;24237;50.106;20.014;2023-10-08T02:59:17;1.15;;;0.88;;
38455;SDS011;24237;50.106;20.014;2023-10-08T03:01:43;3.72;;;1.02;;
38455;SDS011;24237;50.106;20.014;2023-10-08T03:04:09;2.33;;;0.90;;
38455;SDS011;24237;50.106;20.014;2023-10-08T03:06:44;9.15;;;1.50;;
38455;SDS011;24237;50.106;20.014;2023-10-08T03:09:20;4.32;;;1.10;;
38455;SDS011;24237;50.106;20.014;2023-10-08T03:11:48;2.47;;;1.10;;
38455;SDS011;24237;50.106;20.014;2023-10-08T03:14:15;2.42;;;0.98;;
38455;SDS011;24237;50.106;20.014;2023-10-08T03:16:48;2.55;;;0.80;;
38455;SDS011;24237;50.106;20.014;2023-10-08T03:19:18;2.15;;;0.75;;
38455;SDS011;24237;50.106;20.014;2023-10-08T03:21:48;3.55;;;0.70;;
38455;SDS011;24237;50.106;20.014;2023-10-08T03:24:21;5.57;;;1.17;;
38455;SDS011;24237;50.106;20.014;2023-10-08T03:26:58;3.08;;;0.90;;
38455;SDS011;24237;50.106;20.014;2023-10-08T03:29:32;3.50;;;1.08;;
38455;SDS011;24237;50.106;20.014;2023-10-08T03:31:58;2.30;;;0.90;;
38455;SDS011;24237;50.106;20.014;2023-10-08T03:34:24;3.67;;;1.33;;
38455;SDS011;24237;50.106;20.014;2023-10-08T03:36:59;2.60;;;0.95;;
38455;SDS011;24237;50.106;20.014;2023-10-08T03:39:30;2.60;;;0.90;;
38455;SDS011;24237;50.106;20.014;2023-10-08T03:42:19;4.15;;;1.13;;
38455;SDS011;24237;50.106;20.014;2023-10-08T03:44:45;3.25;;;1.17;;
38455;SDS011;24237;50.106;20.014;2023-10-08T03:47:17;3.00;;;1.25;;
38455;SDS011;24237;50.106;20.014;2023-10-08T03:49:44;3.42;;;1.40;;
38455;SDS011;24237;50.106;20.014;2023-10-08T03:52:15;3.55;;;1.00;;
38455;SDS011;24237;50.106;20.014;2023-10-08T03:54:41;2.28;;;1.20;;
38455;SDS011;24237;50.106;20.014;2023-10-08T03:57:25;7.47;;;1.67;;
38455;SDS011;24237;50.106;20.014;2023-10-08T04:00:06;4.82;;;1.00;;
38455;SDS011;24237;50.106;20.014;2023-10-08T04:02:53;3.05;;;1.35;;
38455;SDS011;24237;50.106;20.014;2023-10-08T04:05:21;5.47;;;1.10;;
38455;SDS011;24237;50.106;20.014;2023-10-08T04:07:52;3.45;;;1.20;;
38455;SDS011;24237;50.106;20.014;2023-10-08T04:10:24;3.63;;;1.23;;
38455;SDS011;24237;50.106;20.014;2023-10-08T04:13:06;1.58;;;0.88;;
38455;SDS011;24237;50.106;20.014;2023-10-08T04:15:37;4.60;;;1.65;;
38455;SDS011;24237;50.106;20.014;2023-10-08T04:18:07;7.50;;;1.55;;
38455;SDS011;24237;50.106;20.014;2023-10-08T04:20:33;4.88;;;1.33;;
38455;SDS011;24237;50.106;20.014;2023-10-08T04:23:24;2.42;;;1.05;;
38455;SDS011;24237;50.106;20.014;2023-10-08T04:25:49;5.32;;;1.30;;
38455;SDS011;24237;50.106;20.014;2023-10-08T04:28:19;9.05;;;1.35;;
38455;SDS011;24237;50.106;20.014;2023-10-08T04:30:45;5.20;;;1.30;;
38455;SDS011;24237;50.106;20.014;2023-10-08T04:33:18;6.00;;;1.30;;
38455;SDS011;24237;50.106;20.014;2023-10-08T04:35:44;7.75;;;1.30;;
38455;SDS011;24237;50.106;20.014;2023-10-08T04:38:17;3.97;;;1.27;;
38455;SDS011;24237;50.106;20.014;2023-10-08T04:40:46;8.05;;;1.67;;
38455;SDS011;24237;50.106;20.014;2023-10-08T04:43:23;7.30;;;1.77;;
38455;SDS011;24237;50.106;20.014;2023-10-08T04:45:55;8.60;;;1.60;;
38455;SDS011;24237;50.106;20.014;2023-10-08T04:48:25;6.65;;;1.23;;
38455;SDS011;24237;50.106;20.014;2023-10-08T04:50:54;4.65;;;1.38;;
38455;SDS011;24237;50.106;20.014;2023-10-08T04:53:28;6.70;;;1.55;;
38455;SDS011;24237;50.106;20.014;2023-10-08T04:56:01;5.72;;;2.25;;
38455;SDS011;24237;50.106;20.014;2023-10-08T04:58:32;5.65;;;1.95;;
38455;SDS011;24237;50.106;20.014;2023-10-08T05:00:59;9.07;;;1.48;;
38455;SDS011;24237;50.106;20.014;2023-10-08T05:03:42;9.52;;;1.75;;
38455;SDS011;24237;50.106;20.014;2023-10-08T05:06:20;9.95;;;1.98;;
38455;SDS011;24237;50.106;20.014;2023-10-08T05:09:10;5.60;;;1.95;;
38455;SDS011;24237;50.106;20.014;2023-10-08T05:11:46;8.15;;;1.65;;
38455;SDS011;24237;50.106;20.014;2023-10-08T05:14:31;4.07;;;1.70;;
38455;SDS011;24237;50.106;20.014;2023-10-08T05:16:56;6.65;;;1.50;;
38455;SDS011;24237;50.106;20.014;2023-10-08T05:19:28;10.85;;;1.85;;
38455;SDS011;24237;50.106;20.014;2023-10-08T05:24:53;5.47;;;2.20;;
38455;SDS011;24237;50.106;20.014;2023-10-08T05:27:36;12.38;;;1.92;;
38455;SDS011;24237;50.106;20.014;2023-10-08T05:30:22;9.48;;;1.88;;
38455;SDS011;24237;50.106;20.014;2023-10-08T05:33:07;9.57;;;1.80;;
38455;SDS011;24237;50.106;20.014;2023-10-08T05:35:49;6.50;;;1.80;;
38455;SDS011;24237;50.106;20.014;2023-10-08T05:38:19;10.55;;;2.05;;
38455;SDS011;24237;50.106;20.014;2023-10-08T05:40:56;6.65;;;2.03;;
38455;SDS011;24237;50.106;20.014;2023-10-08T05:43:26;7.80;;;1.75;;
38455;SDS011;24237;50.106;20.014;2023-10-08T05:46:04;8.13;;;1.67;;
38455;SDS011;24237;50.106;20.014;2023-10-08T05:48:46;4.95;;;1.70;;
38455;SDS011;24237;50.106;20.014;2023-10-08T05:51:26;8.73;;;2.22;;
38455;SDS011;24237;50.106;20.014;2023-10-08T05:54:11;7.32;;;1.80;;
38455;SDS011;24237;50.106;20.014;2023-10-08T05:57:02;11.57;;;1.90;;
38455;SDS011;24237;50.106;20.014;2023-10-08T05:59:45;5.75;;;1.63;;
38455;SDS011;24237;50.106;20.014;2023-10-08T06:02:21;9.07;;;2.60;;
38455;SDS011;24237;50.106;20.014;2023-10-08T06:04:53;7.03;;;1.80;;
38455;SDS011;24237;50.106;20.014;2023-10-08T06:07:49;7.80;;;2.20;;
38455;SDS011;24237;50.106;20.014;2023-10-08T06:15:37;11.80;;;3.70;;
38455;SDS011;24237;50.106;20.014;2023-10-08T06:18:23;9.32;;;1.98;;
38455;SDS011;24237;50.106;20.014;2023-10-08T06:20:53;6.25;;;1.67;;
38455;SDS011;24237;50.106;20.014;2023-10-08T06:23:35;7.88;;;2.08;;
38455;SDS011;24237;50.106;20.014;2023-10-08T06:26:02;5.97;;;2.08;;
38455;SDS011;24237;50.106;20.014;2023-10-08T06:28:35;6.82;;;1.80;;
38455;SDS011;24237;50.106;20.014;2023-10-08T06:31:02;4.10;;;2.10;;
38455;SDS011;24237;50.106;20.014;2023-10-08T06:33:36;5.53;;;1.80;;
38455;SDS011;24237;50.106;20.014;2023-10-08T06:36:06;6.50;;;1.33;;
38455;SDS011;24237;50.106;20.014;2023-10-08T06:38:37;8.82;;;1.83;;
38455;SDS011;24237;50.106;20.014;2023-10-08T06:41:08;5.22;;;2.10;;
38455;SDS011;24237;50.106;20.014;2023-10-08T06:43:37;5.15;;;2.40;;
38455;SDS011;24237;50.106;20.014;2023-10-08T06:46:03;6.97;;;1.88;;
38455;SDS011;24237;50.106;20.014;2023-10-08T06:48:32;11.30;;;3.03;;
38455;SDS011;24237;50.106;20.014;2023-10-08T06:50:59;5.50;;;1.88;;
38455;SDS011;24237;50.106;20.014;2023-10-08T06:53:46;6.30;;;1.83;;
38455;SDS011;24237;50.106;20.014;2023-10-08T06:56:13;5.57;;;1.80;;
38455;SDS011;24237;50.106;20.014;2023-10-08T06:58:40;8.02;;;1.60;;
38455;SDS011;24237;50.106;20.014;2023-10-08T07:01:13;4.38;;;1.55;;
38455;SDS011;24237;50.106;20.014;2023-10-08T07:03:50;5.68;;;2.03;;
38455;SDS011;24237;50.106;20.014;2023-10-08T07:06:17;7.10;;;1.80;;
38455;SDS011;24237;50.106;20.014;2023-10-08T07:08:56;9.90;;;2.00;;
38455;SDS011;24237;50.106;20.014;2023-10-08T07:11:24;9.60;;;2.33;;
38455;SDS011;24237;50.106;20.014;2023-10-08T07:13:51;8.00;;;2.40;;
38455;SDS011;24237;50.106;20.014;2023-10-08T07:16:17;6.85;;;1.88;;
38455;SDS011;24237;50.106;20.014;2023-10-08T07:18:45;5.32;;;2.28;;
38455;SDS011;24237;50.106;20.014;2023-10-08T07:21:17;10.32;;;2.67;;
38455;SDS011;24237;50.106;20.014;2023-10-08T07:23:48;5.15;;;1.95;;
38455;SDS011;24237;50.106;20.014;2023-10-08T07:26:21;8.10;;;1.80;;
38455;SDS011;24237;50.106;20.014;2023-10-08T07:28:50;15.35;;;4.82;;
38455;SDS011;24237;50.106;20.014;2023-10-08T07:31:18;6.85;;;2.30;;
38455;SDS011;24237;50.106;20.014;2023-10-08T07:33:48;5.78;;;1.58;;
38455;SDS011;24237;50.106;20.014;2023-10-08T07:36:24;6.50;;;2.53;;
38455;SDS011;24237;50.106;20.014;2023-10-08T07:38:51;6.05;;;1.95;;
38455;SDS011;24237;50.106;20.014;2023-10-08T07:41:20;2.67;;;1.48;;
38455;SDS011;24237;50.106;20.014;2023-10-08T07:43:46;5.47;;;1.55;;
38455;SDS011;24237;50.106;20.014;2023-10-08T07:46:21;4.78;;;1.70;;
38455;SDS011;24237;50.106;20.014;2023-10-08T07:48:47;6.63;;;1.73;;
38455;SDS011;24237;50.106;20.014;2023-10-08T07:51:13;7.45;;;1.95;;
38455;SDS011;24237;50.106;20.014;2023-10-08T07:53:39;8.00;;;2.08;;
38455;SDS011;24237;50.106;20.014;2023-10-08T07:56:07;5.25;;;1.83;;
38455;SDS011;24237;50.106;20.014;2023-10-08T07:58:33;6.00;;;2.65;;
38455;SDS011;24237;50.106;20.014;2023-10-08T08:01:05;6.53;;;2.17;;
38455;SDS011;24237;50.106;20.014;2023-10-08T08:03:35;5.45;;;1.90;;
38455;SDS011;24237;50.106;20.014;2023-10-08T08:06:04;5.30;;;1.98;;
38455;SDS011;24237;50.106;20.014;2023-10-08T08:08:31;7.50;;;2.47;;
38455;SDS011;24237;50.106;20.014;2023-10-08T08:10:58;5.72;;;1.80;;
38455;SDS011;24237;50.106;20.014;2023-10-08T08:13:28;5.10;;;1.40;;
38455;SDS011;24237;50.106;20.014;2023-10-08T08:15:55;5.97;;;1.90;;
38455;SDS011;24237;50.106;20.014;2023-10-08T08:18:23;5.55;;;1.65;;
38455;SDS011;24237;50.106;20.014;2023-10-08T08:20:58;3.70;;;1.92;;
38455;SDS011;24237;50.106;20.014;2023-10-08T08:23:27;11.40;;;5.60;;
38455;SDS011;24237;50.106;20.014;2023-10-08T08:25:53;3.50;;;1.80;;
38455;SDS011;24237;50.106;20.014;2023-10-08T08:28:32;5.28;;;2.10;;
38455;SDS011;24237;50.106;20.014;2023-10-08T08:31:04;2.97;;;1.80;;
38455;SDS011;24237;50.106;20.014;2023-10-08T08:33:38;4.93;;;2.13;;
38455;SDS011;24237;50.106;20.014;2023-10-08T08:36:31;5.00;;;1.92;;
38455;SDS011;24237;50.106;20.014;2023-10-08T08:38:57;5.50;;;2.05;;
38455;SDS011;24237;50.106;20.014;2023-10-08T08:41:23;6.15;;;2.25;;
38455;SDS011;24237;50.106;20.014;2023-10-08T08:43:49;8.40;;;1.95;;
38455;SDS011;24237;50.106;20.014;2023-10-08T08:46:36;5.20;;;2.15;;
38455;SDS011;24237;50.106;20.014;2023-10-08T08:49:03;5.47;;;2.10;;
38455;SDS011;24237;50.106;20.014;2023-10-08T08:51:32;3.75;;;2.00;;
38455;SDS011;24237;50.106;20.014;2023-10-08T08:54:01;5.28;;;1.90;;
38455;SDS011;24237;50.106;20.014;2023-10-08T08:56:32;5.20;;;2.40;;
38455;SDS011;24237;50.106;20.014;2023-10-08T08:58:59;4.97;;;2.45;;
38455;SDS011;24237;50.106;20.014;2023-10-08T09:01:26;6.20;;;2.10;;
38455;SDS011;24237;50.106;20.014;2023-10-08T09:04:00;4.25;;;2.15;;
38455;SDS011;24237;50.106;20.014;2023-10-08T09:06:30;4.53;;;2.22;;
38455;SDS011;24237;50.106;20.014;2023-10-08T09:09:04;3.80;;;2.30;;
38455;SDS011;24237;50.106;20.014;2023-10-08T09:11:46;7.43;;;3.10;;
38455;SDS011;24237;50.106;20.014;2023-10-08T09:14:20;4.60;;;2.33;;
38455;SDS011;24237;50.106;20.014;2023-10-08T09:16:48;7.00;;;2.97;;
38455;SDS011;24237;50.106;20.014;2023-10-08T09:19:15;3.22;;;2.10;;
38455;SDS011;24237;50.106;20.014;2023-10-08T09:21:43;6.60;;;2.92;;
38455;SDS011;24237;50.106;20.014;2023-10-08T09:24:24;5.57;;;2.20;;
38455;SDS011;24237;50.106;20.014;2023-10-08T09:26:51;4.25;;;1.80;;
38455;SDS011;24237;50.106;20.014;2023-10-08T09:29:17;3.75;;;1.92;;
38455;SDS011;24237;50.106;20.014;2023-10-08T09:31:53;3.50;;;1.30;;
38455;SDS011;24237;50.106;20.014;2023-10-08T09:34:21;3.45;;;1.63;;
38455;SDS011;24237;50.106;20.014;2023-10-08T09:36:47;4.05;;;1.52;;
38455;SDS011;24237;50.106;20.014;2023-10-08T09:39:13;4.60;;;1.58;;
38455;SDS011;24237;50.106;20.014;2023-10-08T09:41:48;4.15;;;1.40;;
38455;SDS011;24237;50.106;20.014;2023-10-08T09:44:15;4.82;;;1.27;;
38455;SDS011;24237;50.106;20.014;2023-10-08T09:46:44;2.85;;;1.38;;
38455;SDS011;24237;50.106;20.014;2023-10-08T09:49:16;3.05;;;1.23;;
38455;SDS011;24237;50.106;20.014;2023-10-08T09:51:45;5.63;;;1.20;;
38455;SDS011;24237;50.106;20.014;2023-10-08T09:54:15;5.05;;;1.50;;
38455;SDS011;24237;50.106;20.014;2023-10-08T09:56:45;4.28;;;1.73;;
38455;SDS011;24237;50.106;20.014;2023-10-08T09:59:12;3.70;;;1.60;;
38455;SDS011;24237;50.106;20.014;2023-10-08T10:01:40;5.15;;;1.98;;
38455;SDS011;24237;50.106;20.014;2023-10-08T10:04:11;3.42;;;1.58;;
38455;SDS011;24237;50.106;20.014;2023-10-08T10:06:38;7.93;;;1.73;;
38455;SDS011;24237;50.106;20.014;2023-10-08T10:09:05;4.07;;;1.52;;
38455;SDS011;24237;50.106;20.014;2023-10-08T10:11:40;2.45;;;1.45;;
38455;SDS011;24237;50.106;20.014;2023-10-08T10:14:12;2.92;;;1.65;;
38455;SDS011;24237;50.106;20.014;2023-10-08T10:16:38;5.47;;;1.70;;
38455;SDS011;24237;50.106;20.014;2023-10-08T10:19:06;4.38;;;1.88;;
38455;SDS011;24237;50.106;20.014;2023-10-08T10:21:43;2.65;;;1.70;;
38455;SDS011;24237;50.106;20.014;2023-10-08T10:24:27;4.82;;;1.75;;
38455;SDS011;24237;50.106;20.014;2023-10-08T10:27:14;2.53;;;1.40;;
38455;SDS011;24237;50.106;20.014;2023-10-08T10:29:44;6.60;;;2.13;;
38455;SDS011;24237;50.106;20.014;2023-10-08T10:32:14;4.28;;;2.00;;
38455;SDS011;24237;50.106;20.014;2023-10-08T10:34:41;4.47;;;1.65;;
38455;SDS011;24237;50.106;20.014;2023-10-08T10:37:07;5.10;;;2.03;;
38455;SDS011;24237;50.106;20.014;2023-10-08T10:39:54;2.55;;;1.27;;
38455;SDS011;24237;50.106;20.014;2023-10-08T10:42:24;3.65;;;1.58;;
38455;SDS011;24237;50.106;20.014;2023-10-08T10:47:18;2.22;;;1.15;;
38455;SDS011;24237;50.106;20.014;2023-10-08T10:49:47;4.20;;;1.50;;
38455;SDS011;24237;50.106;20.014;2023-10-08T10:52:24;1.92;;;1.20;;
38455;SDS011;24237;50.106;20.014;2023-10-08T10:55:13;4.32;;;1.25;;
38455;SDS011;24237;50.106;20.014;2023-10-08T10:57:39;3.53;;;1.40;;
38455;SDS011;24237;50.106;20.014;2023-10-08T11:00:07;2.42;;;0.90;;
38455;SDS011;24237;50.106;20.014;2023-10-08T11:02:52;8.23;;;3.00;;
38455;SDS011;24237;50.106;20.014;2023-10-08T11:05:21;2.22;;;1.25;;
38455;SDS011;24237;50.106;20.014;2023-10-08T11:07:53;2.80;;;1.20;;
38455;SDS011;24237;50.106;20.014;2023-10-08T11:10:23;3.08;;;1.08;;
38455;SDS011;24237;50.106;20.014;2023-10-08T11:12:49;1.35;;;0.75;;
38455;SDS011;24237;50.106;20.014;2023-10-08T11:15:18;1.45;;;0.70;;
38455;SDS011;24237;50.106;20.014;2023-10-08T11:17:44;3.83;;;1.17;;
38455;SDS011;24237;50.106;20.014;2023-10-08T11:20:26;3.53;;;1.35;;
38455;SDS011;24237;50.106;20.014;2023-10-08T11:22:52;1.15;;;0.80;;
38455;SDS011;24237;50.106;20.014;2023-10-08T11:25:23;2.78;;;1.13;;
38455;SDS011;24237;50.106;20.014;2023-10-08T11:27:55;2.55;;;0.70;;
38455;SDS011;24237;50.106;20.014;2023-10-08T11:30:34;2.25;;;0.80;;
38455;SDS011;24237;50.106;20.014;2023-10-08T11:33:00;2.03;;;0.80;;
38455;SDS011;24237;50.106;20.014;2023-10-08T11:35:26;2.03;;;1.02;;
38455;SDS011;24237;50.106;20.014;2023-10-08T11:37:59;1.10;;;0.70;;
38455;SDS011;24237;50.106;20.014;2023-10-08T11:40:28;2.92;;;1.20;;
38455;SDS011;24237;50.106;20.014;2023-10-08T11:42:57;1.48;;;0.55;;
38455;SDS011;24237;50.106;20.014;2023-10-08T11:45:28;1.50;;;0.90;;
38455;SDS011;24237;50.106;20.014;2023-10-08T11:48:03;6.13;;;1.00;;
38455;SDS011;24237;50.106;20.014;2023-10-08T11:50:37;3.28;;;1.30;;
38455;SDS011;24237;50.106;20.014;2023-10-08T11:53:03;4.23;;;2.00;;
38455;SDS011;24237;50.106;20.014;2023-10-08T11:55:32;4.75;;;1.27;;
38455;SDS011;24237;50.106;20.014;2023-10-08T11:58:00;4.65;;;1.50;;
38455;SDS011;24237;50.106;20.014;2023-10-08T12:00:38;2.15;;;0.93;;
38455;SDS011;24237;50.106;20.014;2023-10-08T12:03:14;2.42;;;1.10;;
38455;SDS011;24237;50.106;20.014;2023-10-08T12:05:47;5.82;;;1.83;;
38455;SDS011;24237;50.106;20.014;2023-10-08T12:08:17;4.22;;;1.88;;
38455;SDS011;24237;50.106;20.014;2023-10-08T12:10:45;3.50;;;1.10;;
38455;SDS011;24237;50.106;20.014;2023-10-08T12:13:13;2.85;;;1.17;;
38455;SDS011;24237;50.106;20.014;2023-10-08T12:15:41;2.67;;;1.40;;
38455;SDS011;24237;50.106;20.014;2023-10-08T12:18:09;4.85;;;1.05;;
38455;SDS011;24237;50.106;20.014;2023-10-08T12:20:49;2.25;;;0.90;;
38455;SDS011;24237;50.106;20.014;2023-10-08T12:23:15;3.33;;;1.20;;
38455;SDS011;24237;50.106;20.014;2023-10-08T12:25:56;1.83;;;0.98;;
38455;SDS011;24237;50.106;20.014;2023-10-08T12:28:22;4.40;;;1.10;;
38455;SDS011;24237;50.106;20.014;2023-10-08T12:30:48;2.83;;;1.40;;
38455;SDS011;24237;50.106;20.014;2023-10-08T12:33:17;2.83;;;1.08;;
38455;SDS011;24237;50.106;20.014;2023-10-08T12:35:44;3.38;;;1.10;;
38455;SDS011;24237;50.106;20.014;2023-10-08T12:38:12;4.32;;;1.25;;
38455;SDS011;24237;50.106;20.014;2023-10-08T12:40:39;2.67;;;1.03;;
38455;SDS011;24237;50.106;20.014;2023-10-08T12:43:13;3.40;;;0.95;;
38455;SDS011;24237;50.106;20.014;2023-10-08T12:45:44;3.70;;;1.38;;
38455;SDS011;24237;50.106;20.014;2023-10-08T12:48:10;3.50;;;1.10;;
38455;SDS011;24237;50.106;20.014;2023-10-08T12:50:38;1.70;;;0.90;;
38455;SDS011;24237;50.106;20.014;2023-10-08T12:53:08;5.93;;;1.35;;
38455;SDS011;24237;50.106;20.014;2023-10-08T12:55:36;3.45;;;1.40;;
38455;SDS011;24237;50.106;20.014;2023-10-08T12:58:06;5.32;;;1.13;;
38455;SDS011;24237;50.106;20.014;2023-10-08T13:00:35;3.90;;;1.00;;
38455;SDS011;24237;50.106;20.014;2023-10-08T13:03:06;2.45;;;1.20;;
38455;SDS011;24237;50.106;20.014;2023-10-08T13:05:40;2.55;;;0.93;;
38455;SDS011;24237;50.106;20.014;2023-10-08T13:08:09;2.22;;;0.90;;
38455;SDS011;24237;50.106;20.014;2023-10-08T13:10:38;4.60;;;1.23;;
38455;SDS011;24237;50.106;20.014;2023-10-08T13:13:09;2.22;;;1.10;;
38455;SDS011;24237;50.106;20.014;2023-10-08T13:15:36;2.80;;;1.60;;
38455;SDS011;24237;50.106;20.014;2023-10-08T13:18:02;3.85;;;1.20;;
38455;SDS011;24237;50.106;20.014;2023-10-08T13:20:30;5.38;;;1.30;;
38455;SDS011;24237;50.106;20.014;2023-10-08T13:23:02;4.20;;;1.35;;
38455;SDS011;24237;50.106;20.014;2023-10-08T13:25:31;3.30;;;1.58;;
38455;SDS011;24237;50.106;20.014;2023-10-08T13:28:00;1.75;;;1.05;;
38455;SDS011;24237;50.106;20.014;2023-10-08T13:30:27;4.72;;;1.25;;
38455;SDS011;24237;50.106;20.014;2023-10-08T13:32:52;4.95;;;1.20;;
38455;SDS011;24237;50.106;20.014;2023-10-08T13:35:18;1.63;;;0.98;;
38455;SDS011;24237;50.106;20.014;2023-10-08T13:37:44;3.92;;;1.10;;
38455;SDS011;24237;50.106;20.014;2023-10-08T13:40:13;3.17;;;1.20;;
38455;SDS011;24237;50.106;20.014;2023-10-08T13:45:09;3.22;;;1.17;;
38455;SDS011;24237;50.106;20.014;2023-10-08T13:47:41;3.08;;;1.40;;
38455;SDS011;24237;50.106;20.014;2023-10-08T13:50:07;2.40;;;1.30;;
38455;SDS011;24237;50.106;20.014;2023-10-08T13:52:35;3.22;;;1.15;;
38455;SDS011;24237;50.106;20.014;2023-10-08T13:55:04;3.72;;;1.20;;
38455;SDS011;24237;50.106;20.014;2023-10-08T13:57:31;2.35;;;1.10;;
38455;SDS011;24237;50.106;20.014;2023-10-08T13:59:58;2.67;;;1.33;;
38455;SDS011;24237;50.106;20.014;2023-10-08T14:02:25;1.63;;;1.08;;
38455;SDS011;24237;50.106;20.014;2023-10-08T14:04:50;2.33;;;1.20;;
38455;SDS011;24237;50.106;20.014;2023-10-08T14:09:43;2.25;;;1.20;;
38455;SDS011;24237;50.106;20.014;2023-10-08T14:12:12;3.55;;;1.02;;
38455;SDS011;24237;50.106;20.014;2023-10-08T14:14:41;3.42;;;1.55;;
38455;SDS011;24237;50.106;20.014;2023-10-08T14:17:11;4.30;;;1.60;;
38455;SDS011;24237;50.106;20.014;2023-10-08T14:20:02;4.18;;;1.02;;
38455;SDS011;24237;50.106;20.014;2023-10-08T14:22:37;2.60;;;1.17;;
38455;SDS011;24237;50.106;20.014;2023-10-08T14:25:03;3.90;;;1.15;;
38455;SDS011;24237;50.106;20.014;2023-10-08T14:27:36;3.72;;;1.48;;
38455;SDS011;24237;50.106;20.014;2023-10-08T14:30:07;2.90;;;1.10;;
38455;SDS011;24237;50.106;20.014;2023-10-08T14:32:40;1.58;;;0.90;;
38455;SDS011;24237;50.106;20.014;2023-10-08T14:35:11;3.45;;;1.23;;
38455;SDS011;24237;50.106;20.014;2023-10-08T14:37:56;3.90;;;1.15;;
38455;SDS011;24237;50.106;20.014;2023-10-08T14:40:40;5.60;;;1.75;;
38455;SDS011;24237;50.106;20.014;2023-10-08T14:43:24;2.90;;;1.30;;
38455;SDS011;24237;50.106;20.014;2023-10-08T14:45:49;2.88;;;1.20;;
38455;SDS011;24237;50.106;20.014;2023-10-08T14:48:16;3.33;;;1.50;;
38455;SDS011;24237;50.106;20.014;2023-10-08T14:50:42;8.52;;;2.60;;
38455;SDS011;24237;50.106;20.014;2023-10-08T14:53:07;5.07;;;1.60;;
38455;SDS011;24237;50.106;20.014;2023-10-08T14:55:34;5.75;;;1.88;;
38455;SDS011;24237;50.106;20.014;2023-10-08T14:58:01;5.88;;;2.13;;
38455;SDS011;24237;50.106;20.014;2023-10-08T15:00:32;5.35;;;1.58;;
38455;SDS011;24237;50.106;20.014;2023-10-08T15:03:00;3.30;;;1.23;;
38455;SDS011;24237;50.106;20.014;2023-10-08T15:05:30;2.05;;;1.30;;
38455;SDS011;24237;50.106;20.014;2023-10-08T15:07:56;4.07;;;1.38;;
38455;SDS011;24237;50.106;20.014;2023-10-08T15:10:22;4.45;;;1.38;;
38455;SDS011;24237;50.106;20.014;2023-10-08T15:12:48;3.40;;;1.10;;